createdAt,value
2023-12-16T00:01:45.262Z,35.28
2023-12-16T00:04:15.989Z,35.36
2023-12-16T00:06:46.540Z,35.38
2023-12-16T00:09:16.881Z,35.30
2023-12-16T00:11:47.307Z,35.32
2023-12-16T00:14:17.751Z,35.41
2023-12-16T00:16:48.194Z,35.39
2023-12-16T00:19:18.681Z,35.36
2023-12-16T00:21:49.041Z,35.43
2023-12-16T00:24:19.391Z,35.25
2023-12-16T00:26:49.642Z,35.42
2023-12-16T00:29:19.884Z,35.49
2023-12-16T00:31:50.185Z,35.37
2023-12-16T00:34:20.711Z,35.43
2023-12-16T00:36:51.118Z,35.37
2023-12-16T00:39:21.473Z,35.42
2023-12-16T00:41:51.806Z,35.47
2023-12-16T00:44:22.047Z,35.42
2023-12-16T00:46:52.528Z,35.42
2023-12-16T00:49:22.870Z,35.44
2023-12-16T00:51:53.270Z,35.44
2023-12-16T00:54:23.572Z,35.55
2023-12-16T00:56:54.502Z,35.45
2023-12-16T00:59:27.312Z,35.54
2023-12-16T01:01:57.778Z,35.63
2023-12-16T01:04:28.109Z,35.67
2023-12-16T01:06:58.423Z,35.56
2023-12-16T01:09:28.680Z,35.24
2023-12-16T01:11:58.909Z,35.22
2023-12-16T01:14:29.238Z,35.41
2023-12-16T01:16:59.564Z,35.36
2023-12-16T01:19:30.072Z,35.36
2023-12-16T01:22:00.492Z,35.56
2023-12-16T01:24:33.445Z,35.32
2023-12-16T01:27:03.894Z,35.53
2023-12-16T01:29:34.266Z,35.46
2023-12-16T01:32:04.922Z,35.54
2023-12-16T01:34:35.215Z,35.46
2023-12-16T01:37:05.658Z,35.52
2023-12-16T01:39:35.983Z,35.56
2023-12-16T01:42:06.762Z,35.57
2023-12-16T01:44:37.338Z,35.66
2023-12-16T01:47:08.058Z,35.48
2023-12-16T01:49:38.978Z,35.66
2023-12-16T01:52:09.506Z,35.56
2023-12-16T01:54:39.798Z,35.71
2023-12-16T01:57:10.039Z,35.80
2023-12-16T01:59:40.591Z,35.61
2023-12-16T02:02:10.865Z,35.68
2023-12-16T02:04:41.175Z,35.53
2023-12-16T02:07:11.522Z,35.62
2023-12-16T02:09:41.872Z,35.74
2023-12-16T02:12:12.535Z,35.80
2023-12-16T02:14:42.845Z,35.66
2023-12-16T02:17:14.465Z,35.72
2023-12-16T02:19:45.252Z,35.73
2023-12-16T02:22:15.646Z,35.71
2023-12-16T02:24:45.913Z,35.68
2023-12-16T02:27:16.484Z,35.66
2023-12-16T02:29:47.198Z,35.82
2023-12-16T02:32:18.438Z,35.69
2023-12-16T02:34:49.472Z,35.95
2023-12-16T02:37:19.970Z,35.77
2023-12-16T02:39:50.523Z,35.91
2023-12-16T02:42:21.011Z,35.87
2023-12-16T02:44:51.262Z,35.91
2023-12-16T02:47:21.484Z,35.84
2023-12-16T02:49:51.812Z,35.80
2023-12-16T02:52:22.224Z,35.99
2023-12-16T02:54:52.602Z,35.79
2023-12-16T02:57:22.893Z,35.95
2023-12-16T02:59:53.289Z,35.86
2023-12-16T03:02:23.537Z,36.03
2023-12-16T03:04:53.890Z,35.93
2023-12-16T03:07:24.323Z,35.98
2023-12-16T03:09:54.618Z,35.88
2023-12-16T03:12:25.677Z,35.96
2023-12-16T03:14:56.085Z,36.03
2023-12-16T03:17:26.556Z,36.03
2023-12-16T03:19:57.147Z,35.93
2023-12-16T03:22:27.441Z,35.93
2023-12-16T03:24:57.745Z,36.13
2023-12-16T03:27:27.993Z,36.17
2023-12-16T03:29:58.434Z,36.00
2023-12-16T03:32:28.667Z,36.10
2023-12-16T03:34:58.950Z,36.17
2023-12-16T03:37:29.414Z,35.92
2023-12-16T03:39:59.857Z,36.21
2023-12-16T03:42:30.246Z,36.15
2023-12-16T03:45:00.616Z,35.98
2023-12-16T03:47:31.127Z,35.96
2023-12-16T03:50:01.422Z,36.05
2023-12-16T03:52:31.745Z,36.15
2023-12-16T03:55:02.295Z,36.14
2023-12-16T03:57:33.941Z,36.26
2023-12-16T04:00:04.426Z,36.28
2023-12-16T04:02:34.854Z,36.23
2023-12-16T04:05:05.549Z,36.38
2023-12-16T04:07:36.035Z,36.33
2023-12-16T04:10:08.057Z,36.38
2023-12-16T04:12:38.378Z,36.38
2023-12-16T04:15:12.021Z,36.22
2023-12-16T04:17:42.782Z,36.41
2023-12-16T04:20:13.903Z,36.44
2023-12-16T04:22:44.314Z,36.25
2023-12-16T04:25:14.736Z,36.40
2023-12-16T04:27:45.036Z,36.43
2023-12-16T04:30:15.878Z,36.45
2023-12-16T04:32:46.279Z,36.39
2023-12-16T04:35:16.674Z,36.36
2023-12-16T04:37:46.948Z,36.46
2023-12-16T04:40:17.653Z,36.52
2023-12-16T04:42:47.947Z,36.34
2023-12-16T04:45:18.377Z,36.48
2023-12-16T04:47:48.811Z,36.52
2023-12-16T04:50:19.452Z,36.51
2023-12-16T04:52:49.685Z,36.51
2023-12-16T04:55:20.042Z,36.57
2023-12-16T04:57:50.348Z,36.42
2023-12-16T05:00:21.010Z,36.55
2023-12-16T05:02:51.404Z,36.53
2023-12-16T05:05:21.648Z,36.51
2023-12-16T05:07:51.901Z,36.50
2023-12-16T05:10:22.224Z,36.48
2023-12-16T05:12:52.528Z,36.43
2023-12-16T05:15:22.800Z,36.42
2023-12-16T05:17:53.111Z,36.51
2023-12-16T05:20:23.783Z,36.62
2023-12-16T05:22:54.088Z,36.66
2023-12-16T05:25:24.363Z,36.48
2023-12-16T05:27:54.726Z,36.62
2023-12-16T05:30:25.059Z,36.51
2023-12-16T05:32:55.538Z,36.63
2023-12-16T05:35:25.916Z,36.68
2023-12-16T05:37:56.301Z,36.50
2023-12-16T05:40:26.687Z,36.67
2023-12-16T05:42:57.049Z,36.69
2023-12-16T05:45:27.305Z,36.64
2023-12-16T05:47:57.696Z,36.69
2023-12-16T05:50:28.155Z,36.52
2023-12-16T05:52:58.514Z,36.58
2023-12-16T05:55:29.499Z,36.66
2023-12-16T05:57:59.812Z,36.60
2023-12-16T06:00:30.283Z,36.46
2023-12-16T06:03:00.639Z,36.56
2023-12-16T06:05:31.082Z,36.44
2023-12-16T06:08:01.376Z,36.65
2023-12-16T06:10:32.105Z,36.45
2023-12-16T06:13:02.484Z,36.61
2023-12-16T06:15:32.842Z,36.62
2023-12-16T06:18:05.269Z,36.50
2023-12-16T06:20:36.100Z,36.63
2023-12-16T06:23:06.353Z,36.55
2023-12-16T06:25:36.767Z,36.61
2023-12-16T06:28:07.194Z,36.57
2023-12-16T06:30:38.363Z,36.73
2023-12-16T06:33:08.781Z,36.65
2023-12-16T06:35:39.223Z,36.68
2023-12-16T06:38:09.485Z,36.61
2023-12-16T06:40:39.851Z,36.73
2023-12-16T06:43:10.149Z,36.61
2023-12-16T06:45:40.527Z,36.65
2023-12-16T06:48:10.827Z,36.68
2023-12-16T06:50:41.278Z,36.61
2023-12-16T06:53:12.661Z,36.58
2023-12-16T06:55:43.053Z,36.65
2023-12-16T06:58:13.455Z,36.76
2023-12-16T07:00:43.915Z,36.51
2023-12-16T07:03:14.477Z,36.59
2023-12-16T07:05:44.981Z,36.65
2023-12-16T07:08:15.707Z,36.55
2023-12-16T07:10:46.488Z,36.45
2023-12-16T07:13:16.822Z,36.55
2023-12-16T07:15:47.161Z,36.56
2023-12-16T07:18:17.512Z,36.51
2023-12-16T07:20:47.924Z,36.43
2023-12-16T07:23:18.198Z,36.54
2023-12-16T07:25:48.760Z,36.44
2023-12-16T07:28:19.071Z,36.50
2023-12-16T07:30:49.629Z,36.56
2023-12-16T07:33:19.996Z,36.59
2023-12-16T07:35:53.304Z,36.66
2023-12-16T07:38:25.188Z,36.61
2023-12-16T07:40:55.889Z,36.68
2023-12-16T07:43:26.404Z,36.66
2023-12-16T07:45:56.732Z,36.58
2023-12-16T07:48:27.186Z,36.71
2023-12-16T07:50:57.724Z,36.68
2023-12-16T07:53:28.122Z,36.62
2023-12-16T07:55:58.426Z,36.57
2023-12-16T07:58:28.726Z,36.47
2023-12-16T08:00:59.214Z,36.57
2023-12-16T08:03:29.542Z,36.57
2023-12-16T08:05:59.904Z,36.55
2023-12-16T08:08:30.196Z,36.64
2023-12-16T08:11:00.434Z,36.52
2023-12-16T08:13:31.197Z,36.48
2023-12-16T08:16:01.824Z,36.62
2023-12-16T08:18:32.540Z,36.55
2023-12-16T08:21:03.430Z,36.48
2023-12-16T08:23:33.702Z,36.69
2023-12-16T08:26:04.596Z,36.68
2023-12-16T08:28:34.965Z,36.58
2023-12-16T08:31:05.981Z,36.62
2023-12-16T08:33:36.414Z,36.54
2023-12-16T08:36:08.607Z,36.61
2023-12-16T08:38:40.686Z,36.63
2023-12-16T08:41:11.369Z,36.62
2023-12-16T08:43:43.101Z,36.61
2023-12-16T08:46:13.827Z,36.62
2023-12-16T08:48:44.292Z,36.59
2023-12-16T08:51:14.555Z,36.65
2023-12-16T08:53:44.925Z,36.53
2023-12-16T08:56:15.269Z,36.69
2023-12-16T08:58:45.729Z,36.62
2023-12-16T09:01:16.263Z,36.75
2023-12-16T09:03:46.861Z,36.71
2023-12-16T09:06:17.314Z,36.69
2023-12-16T09:08:47.585Z,36.59
2023-12-16T09:11:18.007Z,36.86
2023-12-16T09:13:48.326Z,36.85
2023-12-16T09:16:19.139Z,36.44
2023-12-16T09:18:49.511Z,36.26
2023-12-16T09:21:20.648Z,36.28
2023-12-16T09:23:50.891Z,36.26
2023-12-16T09:26:22.460Z,36.49
2023-12-16T09:28:53.017Z,36.43
2023-12-16T09:31:23.476Z,36.48
2023-12-16T09:33:54.014Z,36.43
2023-12-16T09:36:28.206Z,36.39
2023-12-16T09:38:59.072Z,36.31
2023-12-16T09:41:30.262Z,36.41
2023-12-16T09:44:01.090Z,36.28
2023-12-16T09:46:32.887Z,36.43
2023-12-16T09:49:03.778Z,36.32
2023-12-16T09:51:34.098Z,36.42
2023-12-16T09:54:04.436Z,36.34
2023-12-16T09:56:34.767Z,36.23
2023-12-16T09:59:05.049Z,36.22
2023-12-16T10:01:35.472Z,36.16
2023-12-16T10:04:06.131Z,36.25
2023-12-16T10:06:36.402Z,36.19
2023-12-16T10:09:06.654Z,36.21
2023-12-16T10:11:42.756Z,36.18
2023-12-16T10:14:14.201Z,36.23
2023-12-16T10:16:48.034Z,36.29
2023-12-16T10:19:19.095Z,36.39
2023-12-16T10:21:49.873Z,36.55
2023-12-16T10:24:20.282Z,37.06
2023-12-16T10:26:50.657Z,37.25
2023-12-16T10:29:22.713Z,37.55
2023-12-16T10:31:53.229Z,37.44
2023-12-16T10:34:23.635Z,37.49
2023-12-16T10:36:53.934Z,37.54
2023-12-16T10:39:24.261Z,37.32
2023-12-16T10:41:54.522Z,37.27
2023-12-16T10:44:24.771Z,36.96
2023-12-16T10:46:55.954Z,36.52
2023-12-16T10:49:29.573Z,36.46
2023-12-16T10:52:04.873Z,36.06
2023-12-16T10:54:38.456Z,36.02
2023-12-16T10:57:27.001Z,35.97
2023-12-16T11:00:05.794Z,36.06
2023-12-16T11:02:40.337Z,36.03
2023-12-16T11:05:16.019Z,36.11
2023-12-16T11:07:46.441Z,36.04
2023-12-16T11:10:17.278Z,36.06
2023-12-16T11:12:47.642Z,36.22
2023-12-16T11:15:18.515Z,36.24
2023-12-16T11:17:53.565Z,36.08
2023-12-16T11:20:24.385Z,36.04
2023-12-16T11:22:54.869Z,36.13
2023-12-16T11:25:25.323Z,36.13
2023-12-16T11:27:55.741Z,36.02
2023-12-16T11:30:26.040Z,36.12
2023-12-16T11:32:56.954Z,36.05
2023-12-16T11:35:50.000Z,35.97
2023-12-16T11:38:42.929Z,36.13
2023-12-16T11:41:34.018Z,36.13
2023-12-16T11:44:04.450Z,35.99
2023-12-16T11:46:43.050Z,36.07
2023-12-16T11:49:15.817Z,36.01
2023-12-16T11:51:46.404Z,35.92
2023-12-16T11:54:16.688Z,35.84
2023-12-16T11:56:46.976Z,35.76
2023-12-16T11:59:17.276Z,35.78
2023-12-16T12:01:47.766Z,35.73
2023-12-16T12:04:18.185Z,35.84
2023-12-16T12:06:48.525Z,35.75
2023-12-16T12:09:18.977Z,35.84
2023-12-16T12:11:49.593Z,35.78
2023-12-16T12:14:19.883Z,35.86
2023-12-16T12:16:50.627Z,35.80
2023-12-16T12:19:21.072Z,35.80
2023-12-16T12:21:52.890Z,35.76
2023-12-16T12:24:23.765Z,35.51
2023-12-16T12:26:54.797Z,35.56
2023-12-16T12:29:25.114Z,35.75
2023-12-16T12:31:55.444Z,35.58
2023-12-16T12:34:25.795Z,35.79
2023-12-16T12:36:58.690Z,35.80
2023-12-16T12:39:28.966Z,35.66
2023-12-16T12:42:06.605Z,35.69
2023-12-16T12:44:38.696Z,35.72
2023-12-16T12:47:10.098Z,35.49
2023-12-16T12:49:41.357Z,35.60
2023-12-16T12:52:11.781Z,35.68
2023-12-16T12:54:48.334Z,35.60
2023-12-16T12:57:22.869Z,35.55
2023-12-16T13:00:00.578Z,35.62
2023-12-16T13:02:34.204Z,35.58
2023-12-16T13:05:04.822Z,35.52
2023-12-16T13:07:35.094Z,35.57
2023-12-16T13:10:06.151Z,35.51
2023-12-16T13:12:36.462Z,35.33
2023-12-16T13:15:08.226Z,35.27
2023-12-16T13:17:39.374Z,35.29
2023-12-16T13:20:11.289Z,35.22
2023-12-16T13:22:42.734Z,35.24
2023-12-16T13:25:13.202Z,35.25
2023-12-16T13:27:43.594Z,35.14
2023-12-16T13:30:15.063Z,35.12
2023-12-16T13:32:45.485Z,35.21
2023-12-16T13:35:15.934Z,35.14
2023-12-16T13:37:46.174Z,35.19
2023-12-16T13:40:16.452Z,35.15
2023-12-16T13:42:46.840Z,34.93
2023-12-16T13:45:17.584Z,34.80
2023-12-16T13:47:47.984Z,34.77
2023-12-16T13:50:18.320Z,34.77
2023-12-16T13:52:50.603Z,34.77
2023-12-16T13:55:20.849Z,34.68
2023-12-16T13:57:51.205Z,34.62
2023-12-16T14:00:22.875Z,34.73
2023-12-16T14:02:53.284Z,34.73
2023-12-16T14:05:23.764Z,34.61
2023-12-16T14:07:54.021Z,34.73
2023-12-16T14:10:24.520Z,34.71
2023-12-16T14:12:54.805Z,34.60
2023-12-16T14:15:25.064Z,34.65
2023-12-16T14:17:55.399Z,34.58
2023-12-16T14:20:25.775Z,34.53
2023-12-16T14:22:56.022Z,34.62
2023-12-16T14:25:27.014Z,34.58
2023-12-16T14:27:57.287Z,34.60
2023-12-16T14:30:27.640Z,34.59
2023-12-16T14:32:58.166Z,34.56
2023-12-16T14:35:28.588Z,34.58
2023-12-16T14:37:58.846Z,34.64
2023-12-16T14:40:29.337Z,34.45
2023-12-16T14:42:59.636Z,34.67
2023-12-16T14:45:30.193Z,34.62
2023-12-16T14:48:00.598Z,34.53
2023-12-16T14:50:30.953Z,34.42
2023-12-16T14:53:01.273Z,34.51
2023-12-16T14:55:31.708Z,34.59
2023-12-16T14:58:02.538Z,34.62
2023-12-16T15:00:32.880Z,34.46
2023-12-16T15:03:03.187Z,34.48
2023-12-16T15:05:33.721Z,34.68
2023-12-16T15:08:04.056Z,34.53
2023-12-16T15:10:34.393Z,34.53
2023-12-16T15:13:07.879Z,34.47
2023-12-16T15:15:39.389Z,34.50
2023-12-16T15:18:11.002Z,34.30
2023-12-16T15:20:41.376Z,34.30
2023-12-16T15:23:11.668Z,34.45
2023-12-16T15:25:42.170Z,34.26
2023-12-16T15:28:12.452Z,34.45
2023-12-16T15:30:42.741Z,34.51
2023-12-16T15:33:13.140Z,34.53
2023-12-16T15:35:43.602Z,34.48
2023-12-16T15:38:14.029Z,34.41
2023-12-16T15:40:44.372Z,34.35
2023-12-16T15:43:14.622Z,34.53
2023-12-16T15:45:45.110Z,34.33
2023-12-16T15:48:15.491Z,34.24
2023-12-16T15:50:45.908Z,34.37
2023-12-16T15:53:16.385Z,34.31
2023-12-16T15:55:46.829Z,34.47
2023-12-16T15:58:17.217Z,34.28
2023-12-16T16:00:47.484Z,34.40
2023-12-16T16:03:19.257Z,34.27
2023-12-16T16:05:51.106Z,34.14
2023-12-16T16:08:21.791Z,34.17
2023-12-16T16:10:53.046Z,34.16
2023-12-16T16:13:23.329Z,34.29
2023-12-16T16:15:53.726Z,34.10
2023-12-16T16:18:24.058Z,34.18
2023-12-16T16:20:54.422Z,34.19
2023-12-16T16:23:24.956Z,34.32
2023-12-16T16:25:55.303Z,34.26
2023-12-16T16:28:25.602Z,34.27
2023-12-16T16:30:55.909Z,34.34
2023-12-16T16:33:26.305Z,34.42
2023-12-16T16:35:56.668Z,34.34
2023-12-16T16:38:27.332Z,34.38
2023-12-16T16:40:57.574Z,34.36
2023-12-16T16:43:27.852Z,34.34
2023-12-16T16:45:58.162Z,34.35
2023-12-16T16:48:28.677Z,34.49
2023-12-16T16:50:59.065Z,34.29
2023-12-16T16:53:29.338Z,34.35
2023-12-16T16:55:59.662Z,34.45
2023-12-16T16:58:29.966Z,34.44
2023-12-16T17:01:00.298Z,34.45
2023-12-16T17:03:35.810Z,34.46
2023-12-16T17:06:06.980Z,34.51
2023-12-16T17:08:37.728Z,34.58
2023-12-16T17:11:08.257Z,34.46
2023-12-16T17:13:38.495Z,34.61
2023-12-16T17:16:13.826Z,34.54
2023-12-16T17:18:44.315Z,34.53
2023-12-16T17:21:14.616Z,34.59
2023-12-16T17:23:44.909Z,34.59
2023-12-16T17:26:15.247Z,34.73
2023-12-16T17:28:45.500Z,34.55
2023-12-16T17:31:15.957Z,34.64
2023-12-16T17:33:46.350Z,34.62
2023-12-16T17:36:16.928Z,34.75
2023-12-16T17:38:47.223Z,34.57
2023-12-16T17:41:17.615Z,34.50
2023-12-16T17:43:47.873Z,34.25
2023-12-16T17:46:18.293Z,34.47
2023-12-16T17:48:48.811Z,34.37
2023-12-16T17:51:19.537Z,34.42
2023-12-16T17:53:50.053Z,34.49
2023-12-16T17:56:20.318Z,34.70
2023-12-16T17:58:50.601Z,34.45
2023-12-16T18:01:21.059Z,34.58
2023-12-16T18:03:52.415Z,34.53
2023-12-16T18:06:23.004Z,34.64
2023-12-16T18:08:53.400Z,34.59
2023-12-16T18:11:23.704Z,34.56
2023-12-16T18:13:54.176Z,34.55
2023-12-16T18:16:24.572Z,34.57
2023-12-16T18:18:54.968Z,34.63
2023-12-16T18:21:25.351Z,34.54
2023-12-16T18:23:56.683Z,34.54
2023-12-16T18:26:27.518Z,34.70
2023-12-16T18:28:57.836Z,34.62
2023-12-16T18:31:28.208Z,34.64
2023-12-16T18:33:58.670Z,34.75
2023-12-16T18:36:29.921Z,34.70
2023-12-16T18:39:00.251Z,34.78
2023-12-16T18:41:30.593Z,34.85
2023-12-16T18:44:00.875Z,34.71
2023-12-16T18:46:33.437Z,34.79
2023-12-16T18:49:03.961Z,34.68
2023-12-16T18:51:34.385Z,34.72
2023-12-16T18:54:04.989Z,34.78
2023-12-16T18:56:35.303Z,34.82
2023-12-16T18:59:05.621Z,34.75
2023-12-16T19:01:36.953Z,34.66
2023-12-16T19:04:07.517Z,34.80
2023-12-16T19:06:38.020Z,34.89
2023-12-16T19:09:10.001Z,34.74
2023-12-16T19:11:40.889Z,34.75
2023-12-16T19:14:11.632Z,34.80
2023-12-16T19:16:41.916Z,34.86
2023-12-16T19:19:12.271Z,34.80
2023-12-16T19:21:42.603Z,34.72
2023-12-16T19:24:14.750Z,34.90
2023-12-16T19:26:45.263Z,34.72
2023-12-16T19:29:15.691Z,34.84
2023-12-16T19:31:45.985Z,34.83
2023-12-16T19:34:16.487Z,34.78
2023-12-16T19:36:48.682Z,34.72
2023-12-16T19:39:22.649Z,34.96
2023-12-16T19:41:53.715Z,34.93
2023-12-16T19:44:24.249Z,34.81
2023-12-16T19:46:54.564Z,34.77
2023-12-16T19:49:25.104Z,34.61
2023-12-16T19:51:55.572Z,34.52
2023-12-16T19:54:26.531Z,34.50
2023-12-16T19:56:56.838Z,34.65
2023-12-16T19:59:27.504Z,34.65
2023-12-16T20:01:57.782Z,34.59
2023-12-16T20:04:28.075Z,34.63
2023-12-16T20:06:58.396Z,34.65
2023-12-16T20:09:28.701Z,34.98
2023-12-16T20:11:58.983Z,35.27
2023-12-16T20:14:29.560Z,35.26
2023-12-16T20:16:59.810Z,35.16
2023-12-16T20:19:30.210Z,35.28
2023-12-16T20:22:02.821Z,35.08
2023-12-16T20:24:33.113Z,35.03
2023-12-16T20:27:03.470Z,35.06
2023-12-16T20:29:33.761Z,35.13
2023-12-16T20:32:04.018Z,35.07
2023-12-16T20:34:34.401Z,34.94
2023-12-16T20:37:06.505Z,34.76
2023-12-16T20:39:53.916Z,34.86
2023-12-16T20:42:24.172Z,34.71
2023-12-16T20:44:54.480Z,34.80
2023-12-16T20:47:24.747Z,34.86
2023-12-16T20:49:55.102Z,34.81
2023-12-16T20:52:26.640Z,34.78
2023-12-16T20:54:56.899Z,34.87
2023-12-16T20:57:27.136Z,34.91
2023-12-16T20:59:57.408Z,34.75
2023-12-16T21:02:27.656Z,34.84
2023-12-16T21:04:57.922Z,34.81
2023-12-16T21:07:28.615Z,34.85
2023-12-16T21:09:58.881Z,34.83
2023-12-16T21:12:29.186Z,34.82
2023-12-16T21:14:59.761Z,34.86
2023-12-16T21:17:30.389Z,34.78
2023-12-16T21:20:01.125Z,34.85
2023-12-16T21:22:31.519Z,34.81
2023-12-16T21:25:01.788Z,34.93
2023-12-16T21:27:32.134Z,34.90
2023-12-16T21:30:02.535Z,34.95
2023-12-16T21:32:33.074Z,34.88
2023-12-16T21:35:03.738Z,34.94
2023-12-16T21:37:34.139Z,34.91
2023-12-16T21:40:04.683Z,34.95
2023-12-16T21:42:34.919Z,34.82
2023-12-16T21:45:05.861Z,34.92
2023-12-16T21:47:36.523Z,34.83
2023-12-16T21:50:07.946Z,34.96
2023-12-16T21:52:38.206Z,34.83
2023-12-16T21:55:10.270Z,34.80
2023-12-16T21:57:40.736Z,34.88
2023-12-16T22:00:13.010Z,34.75
2023-12-16T22:02:43.328Z,34.84
2023-12-16T22:05:15.435Z,34.88
2023-12-16T22:07:45.752Z,34.96
2023-12-16T22:10:16.235Z,34.85
2023-12-16T22:12:46.559Z,34.97
2023-12-16T22:15:17.087Z,34.95
2023-12-16T22:17:47.452Z,34.86
2023-12-16T22:20:18.578Z,35.01
2023-12-16T22:22:49.001Z,34.94
2023-12-16T22:25:19.387Z,34.97
2023-12-16T22:27:49.727Z,34.90
2023-12-16T22:30:20.097Z,35.01
2023-12-16T22:32:50.406Z,34.89
2023-12-16T22:35:24.218Z,34.89
2023-12-16T22:37:55.234Z,34.98
2023-12-16T22:40:25.625Z,34.91
2023-12-16T22:42:55.846Z,34.99
2023-12-16T22:45:26.327Z,34.92
2023-12-16T22:47:56.875Z,35.03
2023-12-16T22:50:27.513Z,34.98
2023-12-16T22:52:57.977Z,34.93
2023-12-16T22:55:28.274Z,35.01
2023-12-16T22:57:58.542Z,34.84
2023-12-16T23:00:31.913Z,35.05
2023-12-16T23:03:02.599Z,34.99
2023-12-16T23:05:33.381Z,35.07
2023-12-16T23:08:03.891Z,35.05
2023-12-16T23:10:34.212Z,35.01
2023-12-16T23:13:04.454Z,35.05
2023-12-16T23:15:34.753Z,34.94
2023-12-16T23:18:05.751Z,35.05
2023-12-16T23:20:36.097Z,35.00
2023-12-16T23:23:06.329Z,34.97
2023-12-16T23:25:36.552Z,35.03
2023-12-16T23:28:07.208Z,35.02
2023-12-16T23:30:37.628Z,34.87
2023-12-16T23:33:08.066Z,34.86
2023-12-16T23:35:38.513Z,34.88
2023-12-16T23:38:08.754Z,34.98
2023-12-16T23:40:39.288Z,34.95
2023-12-16T23:43:09.510Z,34.99
2023-12-16T23:45:39.748Z,35.10
2023-12-16T23:48:10.350Z,35.01
2023-12-16T23:50:40.729Z,34.98
2023-12-16T23:53:11.062Z,35.06
2023-12-16T23:55:41.290Z,35.15
2023-12-16T23:58:11.686Z,35.09
